METAR Data
IDs: Format: Raw Decoded Include TAF

Data at: 2151 UTC 08 Aug 2020

KMAO 082135Z AUTO 00000KT 10SM CLR 31/22 A3008 RMK AO2
KMAO 082115Z AUTO 23003KT 10SM SCT039 31/23 A3009 RMK AO2
KMAO 082055Z AUTO 00000KT 10SM SCT039 SCT050 31/22 A3009 RMK AO2
KMAO 082035Z AUTO 18004KT 10SM SCT039 BKN050 BKN065 32/23 A3009 RMK AO2
KMAO 082015Z AUTO 00000KT 10SM SCT037 OVC055 31/23 A3010 RMK AO2
KMAO 081955Z AUTO 00000KT 10SM BKN039 BKN047 OVC065 31/23 A3010 RMK AO2
KMAO 081935Z AUTO 00000KT 10SM BKN043 BKN070 31/23 A3011 RMK AO2
KMAO 081915Z AUTO 00000KT 10SM BKN041 30/23 A3012 RMK AO2
KMAO 081855Z AUTO 00000KT 10SM SCT034 31/23 A3012 RMK AO2
KMAO 081835Z AUTO 00000KT 10SM BKN036 30/23 A3013 RMK AO2
KMAO 081815Z AUTO 25003KT 10SM SCT033 BKN039 31/23 A3013 RMK AO2
KMAO 081755Z AUTO 00000KT 10SM BKN031 BKN037 30/23 A3014 RMK AO2
KMAO 081735Z AUTO 00000KT 10SM SCT031 30/23 A3014 RMK AO2
KMAO 081715Z AUTO 00000KT 10SM SCT029 29/23 A3015 RMK AO2
KMAO 081655Z AUTO 20003KT 10SM SCT029 29/23 A3015 RMK AO2
KMAO 081635Z AUTO 00000KT 10SM SCT025 30/23 A3015 RMK AO2
KMAO 081615Z AUTO 00000KT 10SM SCT023 29/23 A3015 RMK AO2
KMAO 081555Z AUTO 00000KT 10SM BKN023 28/23 A3015 RMK AO2
KMAO 081535Z AUTO 21003KT 10SM SCT023 28/23 A3016 RMK AO2
KMAO 081515Z AUTO 25004KT 10SM SCT019 28/23 A3016 RMK AO2
KMAO 081455Z AUTO 24005KT 10SM BKN017 BKN022 28/24 A3017 RMK AO2
KMAO 081435Z AUTO 29003KT 10SM BKN015 OVC021 27/24 A3016 RMK AO2
KMAO 081415Z AUTO 20005KT 10SM BKN013 27/24 A3016 RMK AO2
KMAO 081355Z AUTO 24006KT 10SM SCT011 26/24 A3015 RMK AO2
KMAO 081335Z AUTO 25005KT 10SM CLR 26/24 A3015 RMK AO2
KMAO 081315Z AUTO 24006KT 10SM CLR 25/23 A3015 RMK AO2
KMAO 081255Z AUTO 23003KT 10SM CLR 25/23 A3016 RMK AO2
KMAO 081235Z AUTO 23004KT 10SM SCT004 23/23 A3016 RMK AO2
KMAO 081215Z AUTO 20004KT 10SM CLR 22/22 A3015 RMK AO2
KMAO 081155Z AUTO 20005KT 10SM CLR 22/22 A3015 RMK AO2
KMAO 081135Z AUTO 00000KT 10SM CLR 22/22 A3014 RMK AO2
KMAO 081115Z AUTO 00000KT 10SM CLR 21/21 A3014 RMK AO2
KMAO 081055Z AUTO 00000KT 10SM CLR 21/21 A3013 RMK AO2
KMAO 081035Z AUTO 00000KT 10SM CLR 21/21 A3013 RMK AO2
KMAO 081015Z AUTO 00000KT 10SM CLR 21/21 A3013 RMK AO2
KMAO 080955Z AUTO 00000KT 10SM SCT022 SCT030 21/21 A3013 RMK AO2
KMAO 080935Z AUTO 00000KT 10SM BKN022 BKN028 BKN070 21/21 A3013 RMK AO2
KMAO 080915Z AUTO 00000KT 10SM SCT070 21/21 A3012 RMK AO2
KMAO 080855Z AUTO 00000KT 10SM SCT070 21/21 A3012 RMK AO2
KMAO 080835Z AUTO 00000KT 10SM CLR 21/21 A3011 RMK AO2
KMAO 080815Z AUTO 00000KT 10SM CLR 21/21 A3011 RMK AO2
KMAO 080755Z AUTO 00000KT 10SM CLR 21/21 A3011 RMK AO2
KMAO 080735Z AUTO 20003KT 10SM CLR 21/21 A3011 RMK AO2
KMAO 080715Z AUTO 00000KT 10SM CLR 21/21 A3011 RMK AO2
KMAO 080655Z AUTO 00000KT 10SM CLR 21/21 A3011 RMK AO2
KMAO 080635Z AUTO 00000KT 10SM CLR 21/21 A3011 RMK AO2
KMAO 080615Z AUTO 00000KT 10SM CLR 21/21 A3011 RMK AO2
KMAO 080555Z AUTO 00000KT 10SM CLR 21/21 A3012 RMK AO2 P0002
KMAO 080535Z AUTO 00000KT 10SM CLR 22/22 A3013 RMK AO2 P0001
KMAO 080515Z AUTO 00000KT 10SM CLR 21/21 A3013 RMK AO2 P0001
KMAO 080455Z AUTO 00000KT 10SM SCT002 22/22 A3013 RMK AO2 P0008
KMAO 080435Z AUTO 00000KT 10SM SCT003 21/21 A3012 RMK AO2 P0005
KMAO 080415Z AUTO 00000KT 10SM SCT003 SCT050 SCT070 21/21 A3012 RMK AO2 P0003
KMAO 080355Z AUTO 00000KT 7SM -RA SCT075 BKN090 21/21 A3011 RMK AO2 P0008
KMAO 080335Z AUTO 20004KT 7SM RA SCT075 OVC090 22/22 A3013 RMK AO2 P0004
KMAO 080315Z AUTO 17004KT 7SM RA OVC090 22/22 A3015 RMK AO2
KMAO 080255Z AUTO 00000KT 7SM RA SCT080 OVC100 22/22 A3015 RMK AO2 P0001
KMAO 080235Z AUTO 15004KT 10SM RA BKN100 22/22 A3015 RMK AO2
KMAO 080215Z AUTO 19006KT 10SM SCT065 22/22 A3015 RMK AO2
KMAO 080155Z AUTO 21007KT 10SM CLR 22/22 A3014 RMK AO2 P0001
KMAO 080135Z AUTO 19005KT 10SM SCT090 22/22 A3012 RMK AO2 P0001
KMAO 080115Z AUTO 00000KT 10SM -RA SCT032 SCT048 BKN100 22/22 A3011 RMK AO2
KMAO 080055Z AUTO 19005KT 10SM +RA BKN031 BKN050 OVC080 23/22 A3012 RMK AO2
KMAO 080035Z AUTO 17005KT 10SM +RA SCT028 BKN036 OVC060 23/23 A3011 RMK AO2
KMAO 080015Z AUTO 09003KT 10SM RA BKN030 BKN065 OVC090 24/22 A3009 RMK AO2
KMAO 072355Z AUTO 04007KT 10SM SCT023 OVC030 26/22 A3006 RMK AO2
KMAO 072335Z AUTO 04007KT 10SM SCT022 BKN028 BKN041 26/23 A3005 RMK AO2
KMAO 072315Z AUTO 00000KT 10SM BKN044 BKN050 27/26 A3005 RMK AO2
KMAO 072255Z AUTO 00000KT 10SM BKN044 BKN050 BKN070 28/26 A3005 RMK AO2
KMAO 072235Z AUTO 00000KT 10SM SCT044 SCT050 SCT070 30/25 A3005 RMK AO2
KMAO 072215Z AUTO 00000KT 10SM SCT047 30/24 A3004 RMK AO2
KMAO 072155Z AUTO 21003KT 10SM SCT049 30/24 A3004 RMK AO2
KMAO 072135Z AUTO 19004KT 10SM CLR 30/24 A3004 RMK AO2
KMAO 072115Z AUTO 20007KT 10SM SCT044 31/23 A3003 RMK AO2
KMAO 072055Z AUTO 20005KT 10SM SCT038 SCT043 32/23 A3002 RMK AO2
KMAO 072035Z AUTO 17006KT 10SM SCT038 31/23 A3002 RMK AO2
KMAO 072015Z AUTO 21006KT 10SM SCT038 SCT044 31/23 A3002 RMK AO2
KMAO 071955Z AUTO 20008KT 10SM SCT038 SCT044 31/23 A3004 RMK AO2
KMAO 071935Z AUTO 23005KT 10SM SCT036 SCT050 SCT065 31/23 A3005 RMK AO2
KMAO 071915Z AUTO 18008KT 10SM BKN036 BKN048 BKN065 31/23 A3006 RMK AO2
KMAO 071855Z AUTO 18006KT 10SM SCT036 SCT047 SCT060 31/23 A3007 RMK AO2
KMAO 071835Z AUTO 16006KT 10SM SCT036 BKN045 BKN055 31/23 A3007 RMK AO2
KMAO 071815Z AUTO 19007KT 10SM SCT034 BKN045 31/23 A3007 RMK AO2
KMAO 071755Z AUTO 16005KT 10SM SCT034 BKN041 30/23 A3008 RMK AO2
KMAO 071735Z AUTO 16006KT 10SM SCT031 SCT042 31/23 A3008 RMK AO2
KMAO 071715Z AUTO 18009KT 10SM SCT031 SCT040 BKN048 30/23 A3009 RMK AO2
KMAO 071655Z AUTO 17006KT 10SM SCT029 SCT035 SCT041 30/23 A3009 RMK AO2
KMAO 071635Z AUTO 21006KT 10SM 30/24 A3010 RMK AO2
KMAO 071615Z AUTO 24004KT 10SM 30/25 A3010 RMK AO2
KMAO 071555Z AUTO 22005KT 10SM 30/23 A3010 RMK AO2
KMAO 071535Z AUTO 17004KT 10SM 29/23 A3010 RMK AO2
KMAO 071515Z AUTO 19006KT 10SM SCT021 28/23 A3010 RMK AO2
KMAO 071455Z AUTO 17005KT 10SM 28/23 A3010 RMK AO2
KMAO 071435Z AUTO 18005KT 10SM 28/24 A3011 RMK AO2
KMAO 071415Z AUTO 15004KT 10SM 27/25 A3010 RMK AO2
KMAO 071355Z AUTO 21006KT 10SM 27/24 A3010 RMK AO2
KMAO 071335Z AUTO 16005KT 10SM CLR 27/25 A3010 RMK AO2
KMAO 071315Z AUTO 20005KT 10SM CLR 26/23 A3010 RMK AO2
KMAO 071255Z AUTO 20006KT 10SM SCT006 25/24 A3010 RMK AO2 P0001
KMAO 071235Z AUTO 21004KT 10SM BKN004 24/24 A3009 RMK AO2
KMAO 071215Z AUTO 00000KT 10SM OVC002 24/24 A3008 RMK AO2
KMAO 071155Z AUTO 00000KT 4SM BR OVC002 23/23 A3007 RMK AO2
KMAO 071135Z AUTO 24003KT 7SM OVC004 23/23 A3008 RMK AO2
KMAO 071115Z AUTO 00000KT 7SM OVC004 23/23 A3008 RMK AO2
KMAO 071055Z AUTO 00000KT 7SM OVC004 23/23 A3007 RMK AO2 P0001
KMAO 071035Z AUTO 00000KT 10SM OVC006 23/23 A3007 RMK AO2
KMAO 071015Z AUTO 00000KT 10SM BKN002 OVC008 23/23 A3007 RMK AO2
KMAO 070955Z AUTO 28003KT 7SM BKN002 OVC010 23/23 A3007 RMK AO2 P0001